Time;durP1;ratioP1;P1;durP2;ratioP2;P2;SDS_P1;SDS_P2;PMS_P1;PMS_P2;Temp;Humidity;BMP_temperature;BMP_pressure;BME280_temperature;BME280_humidity;BME280_pressure;Samples;Min_cycle;Max_cycle;Signal;HPM_P1;HPM_P2
2023/06/16 00:00:32;;;;;;;14.27;12.60;;;11.40;99.90;;;;;;8260622;28;20322;-64
2023/06/16 00:04:35;;;;;;;12.43;10.43;;;11.30;99.90;;;;;;8266055;28;20226;-63
2023/06/16 00:08:37;;;;;;;11.90;10.70;;;11.30;99.90;;;;;;8265416;28;20275;-66
2023/06/16 00:12:40;;;;;;;14.60;11.90;;;11.20;99.90;;;;;;8252549;28;20199;-65
2023/06/16 00:16:45;;;;;;;15.90;13.07;;;11.20;99.90;;;;;;8249396;28;20227;-67
2023/06/16 00:20:51;;;;;;;13.83;11.40;;;11.20;99.90;;;;;;8254200;28;20189;-65
2023/06/16 00:24:53;;;;;;;12.10;10.77;;;11.10;99.90;;;;;;8249432;28;20210;-65
2023/06/16 00:28:54;;;;;;;13.77;11.37;;;11.00;99.90;;;;;;8254303;28;20190;-66
2023/06/16 00:32:55;;;;;;;13.50;12.07;;;11.00;99.90;;;;;;8280641;28;20193;-66
2023/06/16 00:36:57;;;;;;;12.63;11.33;;;11.00;99.90;;;;;;8285473;28;20273;-65
2023/06/16 00:40:59;;;;;;;11.73;10.53;;;11.10;99.90;;;;;;8251874;28;20194;-67
2023/06/16 00:45:04;;;;;;;15.70;12.77;;;11.10;99.90;;;;;;8248792;28;20214;-66
2023/06/16 00:49:08;;;;;;;13.17;10.90;;;11.10;99.90;;;;;;8267023;28;20181;-65
2023/06/16 00:53:12;;;;;;;12.77;11.47;;;11.00;99.90;;;;;;8250719;28;20193;-67
2023/06/16 00:57:14;;;;;;;12.10;10.87;;;10.90;99.90;;;;;;8251588;28;20201;-65
2023/06/16 01:01:15;;;;;;;11.03;9.87;;;10.90;99.90;;;;;;8254054;28;20183;-65
2023/06/16 01:05:19;;;;;;;10.90;9.53;;;10.80;99.90;;;;;;8265561;28;20225;-66
2023/06/16 01:09:50;;;;;;;10.97;8.93;;;10.80;99.90;;;;;;8266524;28;20244;-66
2023/06/16 01:14:14;;;;;;;11.33;9.37;;;10.70;99.90;;;;;;8270835;28;20204;-67
2023/06/16 01:18:22;;;;;;;11.60;10.30;;;10.70;99.90;;;;;;8272195;28;20184;-65
2023/06/16 01:22:37;;;;;;;11.10;10.00;;;10.70;99.90;;;;;;8276219;28;20200;-65
2023/06/16 01:26:45;;;;;;;10.20;9.20;;;10.80;99.90;;;;;;8263173;28;20184;-67
2023/06/16 01:30:50;;;;;;;12.47;10.07;;;10.80;99.90;;;;;;8256970;28;20249;-66
2023/06/16 01:34:51;;;;;;;14.40;12.30;;;10.90;99.90;;;;;;8259277;28;20187;-66
2023/06/16 01:38:53;;;;;;;19.33;13.23;;;10.90;99.90;;;;;;8272279;28;20181;-66
2023/06/16 01:42:56;;;;;;;15.40;12.63;;;10.90;99.90;;;;;;8265054;28;20220;-65
2023/06/16 01:46:58;;;;;;;15.43;13.50;;;10.90;99.90;;;;;;8284732;28;20274;-65
2023/06/16 01:51:00;;;;;;;17.83;14.37;;;10.90;99.90;;;;;;8260821;28;20187;-65
2023/06/16 01:55:01;;;;;;;16.53;14.00;;;10.90;99.90;;;;;;8259162;28;20186;-65
2023/06/16 01:59:02;;;;;;;16.40;14.40;;;10.90;99.90;;;;;;8270344;28;20307;-64
2023/06/16 02:03:23;;;;;;;15.87;14.20;;;10.90;99.90;;;;;;8260304;28;20214;-64
2023/06/16 02:07:34;;;;;;;14.40;12.90;;;10.80;99.90;;;;;;8271993;28;20303;-66
2023/06/16 02:11:39;;;;;;;16.67;13.50;;;10.70;99.90;;;;;;8267114;28;20191;-66
2023/06/16 02:15:40;;;;;;;14.40;12.57;;;10.70;99.90;;;;;;8267348;28;20178;-65
2023/06/16 02:19:44;;;;;;;17.37;11.50;;;10.60;99.90;;;;;;8282727;28;20273;-65
2023/06/16 02:23:44;;;;;;;12.07;10.97;;;10.60;99.90;;;;;;8260707;28;20303;-66
2023/06/16 02:27:51;;;;;;;13.17;10.17;;;10.60;99.90;;;;;;8271419;28;20180;-66
2023/06/16 02:31:52;;;;;;;11.33;10.20;;;10.70;99.90;;;;;;8256978;28;20194;-66
2023/06/16 02:35:53;;;;;;;11.10;9.90;;;10.70;99.90;;;;;;8252603;28;20188;-66
2023/06/16 02:39:54;;;;;;;12.73;11.43;;;10.70;99.90;;;;;;8268117;28;20189;-65
2023/06/16 02:43:55;;;;;;;12.77;11.47;;;10.80;99.90;;;;;;8268833;28;20304;-66
2023/06/16 02:47:56;;;;;;;12.47;11.17;;;10.80;99.90;;;;;;8281845;28;20185;-65
2023/06/16 02:52:00;;;;;;;11.20;10.20;;;10.90;99.90;;;;;;8253416;28;20187;-65
2023/06/16 02:56:04;;;;;;;11.80;10.27;;;10.90;99.90;;;;;;8270733;28;20213;-67
2023/06/16 03:00:10;;;;;;;13.27;11.97;;;11.00;99.90;;;;;;8268821;28;20190;-68
2023/06/16 03:04:11;;;;;;;13.73;10.10;;;11.10;99.90;;;;;;8253701;28;20221;-67
2023/06/16 03:08:12;;;;;;;12.23;10.50;;;11.10;99.90;;;;;;8249978;28;20205;-67
2023/06/16 03:12:13;;;;;;;10.53;9.57;;;11.20;99.90;;;;;;8253838;28;20209;-67
2023/06/16 03:16:16;;;;;;;11.60;10.53;;;11.50;99.90;;;;;;8255398;28;20199;-67
2023/06/16 03:20:24;;;;;;;11.67;10.67;;;12.20;99.90;;;;;;8250582;28;20194;-67
2023/06/16 03:24:25;;;;;;;10.63;9.60;;;12.50;99.90;;;;;;8254087;28;20288;-67
2023/06/16 03:28:33;;;;;;;11.87;10.67;;;13.00;99.90;;;;;;8281860;28;20235;-66
2023/06/16 03:32:34;;;;;;;13.73;10.03;;;13.10;99.90;;;;;;8250802;28;20183;-68
2023/06/16 03:36:39;;;;;;;10.53;9.10;;;13.00;99.90;;;;;;8252330;28;20182;-66
2023/06/16 03:40:40;;;;;;;10.10;9.10;;;13.00;99.90;;;;;;8257558;28;20251;-70
2023/06/16 03:44:41;;;;;;;10.37;9.33;;;13.30;99.90;;;;;;8266247;28;20320;-72
2023/06/16 03:48:42;;;;;;;13.10;9.13;;;13.20;99.90;;;;;;8266145;28;20191;-71
2023/06/16 03:52:43;;;;;;;8.67;7.73;;;13.00;99.90;;;;;;8253595;28;20190;-72
2023/06/16 03:56:46;;;;;;;10.20;8.40;;;13.00;99.90;;;;;;8265911;28;20186;-73
2023/06/16 04:00:47;;;;;;;8.23;7.40;;;13.00;99.90;;;;;;8255125;28;20196;-72
2023/06/16 04:04:48;;;;;;;10.03;8.37;;;13.00;99.90;;;;;;8266405;28;20211;-71
2023/06/16 04:08:49;;;;;;;7.70;7.00;;;13.00;99.90;;;;;;8252876;28;20206;-73
2023/06/16 04:12:53;;;;;;;8.57;7.70;;;13.10;99.90;;;;;;8258500;28;20194;-73
2023/06/16 04:16:54;;;;;;;7.57;6.87;;;13.20;99.90;;;;;;8266095;28;20179;-72
2023/06/16 04:20:55;;;;;;;7.73;7.03;;;13.20;99.90;;;;;;8267344;28;20282;-73
2023/06/16 04:24:56;;;;;;;7.63;6.93;;;13.30;99.90;;;;;;8259968;28;20222;-73
2023/06/16 04:28:57;;;;;;;9.37;7.53;;;13.40;99.90;;;;;;8249352;28;20191;-73
2023/06/16 04:33:01;;;;;;;7.57;6.87;;;13.50;99.90;;;;;;8268956;28;20218;-73
2023/06/16 04:37:02;;;;;;;8.43;7.13;;;13.70;99.90;;;;;;8253181;28;20209;-73
2023/06/16 04:41:04;;;;;;;8.17;7.37;;;13.80;99.90;;;;;;8266996;28;20217;-73
2023/06/16 04:45:07;;;;;;;6.93;6.13;;;14.00;99.90;;;;;;8256627;28;20216;-72
2023/06/16 04:49:08;;;;;;;8.53;6.77;;;14.10;99.90;;;;;;8258424;28;20186;-72
2023/06/16 04:53:09;;;;;;;6.73;6.13;;;14.30;99.90;;;;;;8257595;28;20215;-73
2023/06/16 04:57:10;;;;;;;6.63;6.03;;;14.40;99.90;;;;;;8259271;28;20262;-72
2023/06/16 05:01:12;;;;;;;8.67;6.40;;;14.70;99.90;;;;;;8257931;28;20314;-73
2023/06/16 05:05:13;;;;;;;8.63;7.37;;;15.00;99.90;;;;;;8258127;28;20220;-71
2023/06/16 05:09:14;;;;;;;7.20;6.50;;;15.40;99.90;;;;;;8256037;28;20207;-70
2023/06/16 05:13:15;;;;;;;8.07;6.23;;;15.70;99.90;;;;;;8268227;28;20203;-72
2023/06/16 05:17:16;;;;;;;7.67;6.07;;;16.00;99.90;;;;;;8254134;28;20203;-74
2023/06/16 05:21:24;;;;;;;6.97;6.37;;;16.20;99.90;;;;;;8259466;28;20187;-71
2023/06/16 05:25:32;;;;;;;10.60;7.87;;;16.50;99.90;;;;;;8255587;28;20210;-72
2023/06/16 05:29:33;;;;;;;8.23;6.77;;;16.60;1.00;;;;;;8286052;28;20188;-71
2023/06/16 05:33:34;;;;;;;8.63;6.53;;;16.70;1.00;;;;;;8260076;28;20234;-72
2023/06/16 05:37:37;;;;;;;7.40;6.70;;;17.00;1.00;;;;;;8259997;28;20274;-72
2023/06/16 05:41:38;;;;;;;8.17;6.80;;;17.10;99.90;;;;;;8260273;28;20203;-74
2023/06/16 05:45:39;;;;;;;7.27;6.57;;;17.10;99.90;;;;;;8272082;28;20230;-72
2023/06/16 05:49:46;;;;;;;10.13;7.27;;;17.20;99.90;;;;;;8288579;28;20279;-72
2023/06/16 05:53:47;;;;;;;9.53;7.13;;;17.30;99.90;;;;;;8268688;28;20192;-73
2023/06/16 05:57:48;;;;;;;7.43;6.00;;;17.20;99.90;;;;;;8271257;28;20258;-72
2023/06/16 06:01:49;;;;;;;6.57;5.90;;;17.30;99.90;;;;;;8255172;28;20188;-70
2023/06/16 06:05:53;;;;;;;6.83;6.23;;;17.20;99.90;;;;;;8272429;28;20223;-71
2023/06/16 06:09:54;;;;;;;6.33;5.47;;;17.40;99.90;;;;;;8254297;28;20261;-71
2023/06/16 06:13:59;;;;;;;7.80;5.13;;;17.50;99.90;;;;;;8258168;28;20190;-72
2023/06/16 06:17:59;;;;;;;6.47;5.30;;;17.70;99.90;;;;;;8254708;28;20200;-71
2023/06/16 06:22:00;;;;;;;8.90;5.13;;;17.90;99.90;;;;;;8268240;28;20228;-71
2023/06/16 06:26:01;;;;;;;7.03;4.67;;;18.00;99.90;;;;;;8261843;28;20245;-70
2023/06/16 06:30:02;;;;;;;5.17;4.30;;;18.20;99.90;;;;;;8267402;28;20183;-71
2023/06/16 06:34:03;;;;;;;4.43;4.00;;;18.10;63.50;;;;;;8266154;28;20188;-71
2023/06/16 06:38:04;;;;;;;4.77;3.97;;;18.30;68.10;;;;;;8272720;28;20179;-69
2023/06/16 06:42:06;;;;;;;5.63;4.17;;;18.50;57.40;;;;;;8264574;28;20199;-71
2023/06/16 06:46:07;;;;;;;4.70;4.23;;;18.80;25.10;;;;;;8257186;28;20261;-71
2023/06/16 06:50:08;;;;;;;8.43;4.57;;;18.80;1.00;;;;;;8255524;28;20179;-70
2023/06/16 06:54:09;;;;;;;7.80;4.60;;;18.50;1.00;;;;;;8270079;28;20202;-71
2023/06/16 06:58:10;;;;;;;6.37;4.30;;;18.60;42.30;;;;;;8256898;28;20263;-69
2023/06/16 07:02:12;;;;;;;6.03;4.77;;;18.60;1.00;;;;;;8282705;28;20191;-70
2023/06/16 07:06:13;;;;;;;7.37;4.47;;;18.70;17.80;;;;;;8265914;28;20254;-70
2023/06/16 07:10:13;;;;;;;8.53;3.90;;;19.00;1.00;;;;;;8267416;28;20215;-70
2023/06/16 07:14:15;;;;;;;5.47;3.70;;;18.80;1.00;;;;;;8284511;28;20187;-71
2023/06/16 07:18:16;;;;;;;5.60;3.70;;;18.80;1.00;;;;;;8284557;28;20192;-68
2023/06/16 07:22:16;;;;;;;5.03;3.77;;;18.80;1.00;;;;;;8257676;28;20199;-72
2023/06/16 07:26:17;;;;;;;5.07;3.90;;;18.90;1.00;;;;;;8266291;28;20241;-70
2023/06/16 07:30:18;;;;;;;7.13;4.20;;;19.10;1.00;;;;;;8283056;28;20191;-71
2023/06/16 07:34:19;;;;;;;5.13;3.83;;;19.40;1.00;;;;;;8255383;28;20207;-69
2023/06/16 07:38:21;;;;;;;5.67;3.70;;;19.50;1.00;;;;;;8251355;28;20206;-70
2023/06/16 07:42:21;;;;;;;6.40;4.20;;;19.70;1.00;;;;;;8268409;28;20299;-70
2023/06/16 07:46:22;;;;;;;4.30;3.87;;;19.90;1.00;;;;;;8281290;28;20215;-69
2023/06/16 07:50:24;;;;;;;6.03;4.37;;;20.00;1.00;;;;;;8266123;28;20190;-71
2023/06/16 07:54:25;;;;;;;5.57;4.10;;;19.90;1.00;;;;;;8256142;28;20195;-70
2023/06/16 07:58:26;;;;;;;4.77;4.10;;;20.00;1.00;;;;;;8282629;28;20191;-70
2023/06/16 08:02:27;;;;;;;4.77;3.83;;;20.00;1.00;;;;;;8255376;28;20238;-71
2023/06/16 08:06:28;;;;;;;5.23;3.33;;;20.40;1.00;;;;;;8267300;28;20234;-70
2023/06/16 08:10:29;;;;;;;4.07;3.40;;;20.50;1.00;;;;;;8252560;28;20202;-69
2023/06/16 08:14:30;;;;;;;5.77;3.77;;;20.20;1.00;;;;;;8253842;28;20258;-69
2023/06/16 08:18:35;;;;;;;4.20;3.20;;;20.00;1.00;;;;;;8265214;28;20267;-70
2023/06/16 08:22:39;;;;;;;6.77;3.40;;;20.00;1.00;;;;;;8275707;28;20183;-71
2023/06/16 08:26:39;;;;;;;4.23;3.00;;;20.40;1.00;;;;;;8266402;28;20195;-70
2023/06/16 08:30:40;;;;;;;4.67;3.53;;;20.50;1.00;;;;;;8275015;28;20190;-70
2023/06/16 08:34:41;;;;;;;3.90;3.37;;;20.70;1.00;;;;;;8262172;28;20251;-70
2023/06/16 08:38:48;;;;;;;4.90;3.30;;;20.80;1.00;;;;;;8261407;28;20190;-72
2023/06/16 08:42:51;;;;;;;4.13;3.73;;;20.70;1.00;;;;;;8277104;28;20183;-71
2023/06/16 08:46:52;;;;;;;4.10;3.20;;;21.00;1.00;;;;;;8258011;28;20347;-70
2023/06/16 08:50:55;;;;;;;4.57;3.40;;;21.60;1.00;;;;;;8288487;28;20246;-70
2023/06/16 08:55:01;;;;;;;4.77;3.70;;;22.10;1.00;;;;;;8274191;28;20183;-71
2023/06/16 08:59:06;;;;;;;4.50;3.53;;;22.30;1.00;;;;;;8266072;28;20191;-72
2023/06/16 09:03:08;;;;;;;4.07;3.53;;;22.30;1.00;;;;;;8266885;28;20215;-70
2023/06/16 09:07:16;;;;;;;3.57;3.27;;;22.40;1.00;;;;;;8264295;28;20234;-71
2023/06/16 09:11:24;;;;;;;7.87;3.77;;;22.40;1.00;;;;;;8273126;28;20194;-70
2023/06/16 09:15:25;;;;;;;4.20;3.40;;;22.50;1.00;;;;;;8265448;28;20212;-72
2023/06/16 09:19:26;;;;;;;4.77;3.50;;;22.30;1.00;;;;;;8264811;28;20199;-72
2023/06/16 09:23:31;;;;;;;4.73;3.13;;;22.30;1.00;;;;;;8265048;28;20221;-72
2023/06/16 09:27:55;;;;;;;4.33;3.00;;;22.20;1.00;;;;;;8275873;28;20206;-71
2023/06/16 09:32:09;;;;;;;6.63;3.67;;;22.40;1.00;;;;;;8284032;28;20215;-71
2023/06/16 09:36:10;;;;;;;4.80;3.80;;;22.20;1.00;;;;;;8281379;28;20199;-70
2023/06/16 09:40:13;;;;;;;6.87;4.30;;;22.20;1.00;;;;;;8254029;28;20206;-70
2023/06/16 09:44:15;;;;;;;6.03;3.80;;;21.90;1.00;;;;;;8270976;28;20281;-72
2023/06/16 09:48:16;;;;;;;4.37;3.50;;;21.80;1.00;;;;;;8265084;28;20191;-71
2023/06/16 09:52:17;;;;;;;4.40;3.20;;;22.40;1.00;;;;;;8270328;28;20282;-71
2023/06/16 09:56:19;;;;;;;5.37;3.80;;;23.10;1.00;;;;;;8261499;28;20194;-70
2023/06/16 10:00:20;;;;;;;6.07;3.70;;;23.40;1.00;;;;;;8268834;28;20188;-71
2023/06/16 10:04:22;;;;;;;3.80;3.30;;;23.30;1.00;;;;;;8254711;28;20234;-70
2023/06/16 10:08:24;;;;;;;3.97;3.27;;;23.50;1.00;;;;;;8271252;28;20200;-70
2023/06/16 10:12:27;;;;;;;5.13;3.30;;;23.50;1.00;;;;;;8266396;28;20216;-69
2023/06/16 10:16:29;;;;;;;6.87;3.47;;;23.40;1.00;;;;;;8259192;28;20233;-72
2023/06/16 10:20:37;;;;;;;3.60;3.30;;;23.70;1.00;;;;;;8281547;28;20226;-72
2023/06/16 10:24:39;;;;;;;3.30;3.00;;;23.90;1.00;;;;;;8268299;28;20213;-71
2023/06/16 10:28:42;;;;;;;4.00;2.93;;;24.00;1.00;;;;;;8264402;28;20186;-70
2023/06/16 10:32:47;;;;;;;5.23;3.43;;;23.90;1.00;;;;;;8270722;28;20235;-72
2023/06/16 10:36:54;;;;;;;4.97;3.28;;;24.30;1.00;;;;;;8254290;28;20191;-70
2023/06/16 10:40:58;;;;;;;5.47;3.30;;;24.50;1.00;;;;;;8255915;28;20215;-71
2023/06/16 10:45:26;;;;;;;3.97;3.57;;;24.20;1.00;;;;;;8269639;28;20212;-70
2023/06/16 10:49:30;;;;;;;7.33;3.60;;;23.80;1.00;;;;;;8256126;28;20182;-71
2023/06/16 10:53:38;;;;;;;8.20;3.70;;;23.20;1.00;;;;;;8269823;28;20199;-71
2023/06/16 10:57:42;;;;;;;5.60;3.60;;;23.70;1.00;;;;;;8283650;28;20194;-70
2023/06/16 11:01:46;;;;;;;4.97;3.40;;;23.30;1.00;;;;;;8265157;28;20315;-71
2023/06/16 11:05:48;;;;;;;3.60;3.30;;;22.70;1.00;;;;;;8257057;28;20222;-72
2023/06/16 11:09:58;;;;;;;6.70;3.67;;;22.80;1.00;;;;;;8254852;28;20199;-72
2023/06/16 11:14:02;;;;;;;6.27;3.93;;;22.90;1.00;;;;;;8259179;28;20195;-73
2023/06/16 11:18:05;;;;;;;3.67;3.30;;;23.10;1.00;;;;;;8254076;28;20198;-72
2023/06/16 11:22:06;;;;;;;3.37;3.07;;;23.40;1.00;;;;;;8266400;28;20195;-73
2023/06/16 11:26:10;;;;;;;4.80;3.50;;;24.10;1.00;;;;;;8265066;28;20212;-70
2023/06/16 11:30:11;;;;;;;5.00;3.33;;;23.90;1.00;;;;;;8265485;28;20202;-71
2023/06/16 11:34:12;;;;;;;6.33;3.33;;;23.60;1.00;;;;;;8268423;28;20195;-70
2023/06/16 11:38:22;;;;;;;5.33;3.10;;;23.50;1.00;;;;;;8257148;28;20226;-70
2023/06/16 11:42:23;;;;;;;5.13;3.20;;;23.40;1.00;;;;;;8281138;28;20192;-72
2023/06/16 11:46:27;;;;;;;4.50;3.50;;;23.40;1.00;;;;;;8279482;28;20283;-72
2023/06/16 11:50:28;;;;;;;4.50;3.27;;;23.40;1.00;;;;;;8253345;28;20195;-73
2023/06/16 11:54:29;;;;;;;4.65;3.38;;;24.20;1.00;;;;;;8258006;28;20240;-72
2023/06/16 11:58:31;;;;;;;3.95;3.63;;;25.00;1.00;;;;;;8264221;28;20184;-71
2023/06/16 12:02:34;;;;;;;3.70;3.40;;;24.80;1.00;;;;;;8267350;28;20196;-73
2023/06/16 12:06:37;;;;;;;5.13;3.63;;;24.60;99.90;;;;;;8256748;28;20221;-67
2023/06/16 12:10:38;;;;;;;4.50;3.43;;;24.00;99.90;;;;;;8268631;28;20186;-67
2023/06/16 12:14:42;;;;;;;6.33;4.43;;;23.10;1.00;;;;;;8252944;28;20192;-68
2023/06/16 12:18:43;;;;;;;5.37;4.10;;;22.10;1.00;;;;;;8266467;28;20199;-67
2023/06/16 12:22:46;;;;;;;7.13;4.23;;;21.20;1.00;;;;;;8253512;28;20186;-67
2023/06/16 12:26:56;;;;;;;4.87;4.27;;;20.70;1.00;;;;;;8254156;28;20190;-67
2023/06/16 12:31:03;;;;;;;4.43;4.03;;;20.50;1.00;;;;;;8264658;28;20183;-67
2023/06/16 12:35:08;;;;;;;4.83;4.20;;;20.70;1.00;;;;;;8262284;28;20232;-67
2023/06/16 12:39:19;;;;;;;5.47;4.73;;;21.00;1.00;;;;;;8263000;28;20187;-73
2023/06/16 12:43:25;;;;;;;4.83;4.43;;;21.30;1.00;;;;;;8260344;28;20215;-73
2023/06/16 12:47:27;;;;;;;6.10;4.50;;;21.20;1.00;;;;;;8268609;28;20194;-73
2023/06/16 12:51:28;;;;;;;7.20;4.80;;;20.70;1.00;;;;;;8268227;28;20228;-71
2023/06/16 12:55:29;;;;;;;6.03;4.20;;;20.40;1.00;;;;;;8264989;28;20278;-71
2023/06/16 12:59:34;;;;;;;11.70;5.13;;;20.40;1.00;;;;;;8252686;28;20215;-71
2023/06/16 13:08:32;;;;;;;7.43;5.13;;;19.70;75.90;;;;;;8275739;28;20201;-70
2023/06/16 13:12:33;;;;;;;8.10;5.83;;;19.50;99.90;;;;;;8273596;28;20191;-69
2023/06/16 13:16:34;;;;;;;6.70;5.03;;;19.70;99.90;;;;;;8261158;28;20217;-73
2023/06/16 13:20:38;;;;;;;6.40;4.93;;;20.00;99.90;;;;;;8258181;28;20191;-72
2023/06/16 13:24:39;;;;;;;8.10;5.73;;;20.50;77.60;;;;;;8257163;28;20306;-72
2023/06/16 13:28:43;;;;;;;7.37;5.30;;;20.80;57.30;;;;;;8257403;28;20203;-72
2023/06/16 13:32:44;;;;;;;5.03;4.10;;;21.20;1.00;;;;;;8287748;28;20274;-72
2023/06/16 13:36:50;;;;;;;5.70;5.20;;;21.70;1.00;;;;;;8256420;28;20188;-72
2023/06/16 13:40:53;;;;;;;7.13;5.67;;;21.90;1.00;;;;;;8274230;28;20215;-70
2023/06/16 13:44:54;;;;;;;6.33;4.83;;;21.60;1.00;;;;;;8258897;28;20216;-71
2023/06/16 13:48:56;;;;;;;5.53;4.93;;;21.20;1.00;;;;;;8258290;28;20180;-69
2023/06/16 13:52:57;;;;;;;7.90;5.50;;;20.80;1.00;;;;;;8271400;28;20180;-69
2023/06/16 13:56:58;;;;;;;6.60;5.40;;;19.90;1.00;;;;;;8269941;28;20274;-70
2023/06/16 14:00:59;;;;;;;6.30;5.70;;;18.80;55.60;;;;;;8273549;28;20214;-72
2023/06/16 14:05:00;;;;;;;10.10;5.77;;;18.50;64.40;;;;;;8283949;28;20299;-71
2023/06/16 14:09:02;;;;;;;6.70;4.93;;;18.50;59.40;;;;;;8269113;28;20194;-72
2023/06/16 14:13:03;;;;;;;5.63;4.80;;;18.70;5.10;;;;;;8255275;28;20187;-70
2023/06/16 14:17:04;;;;;;;4.80;4.40;;;19.20;1.00;;;;;;8284156;28;20295;-71
2023/06/16 14:21:05;;;;;;;4.23;3.83;;;20.20;1.00;;;;;;8256248;28;20187;-69
2023/06/16 14:25:12;;;;;;;3.93;3.57;;;20.90;1.00;;;;;;8258796;28;20310;-71
2023/06/16 14:29:13;;;;;;;4.67;3.50;;;21.20;1.00;;;;;;8249936;28;20188;-71
2023/06/16 14:33:14;;;;;;;3.93;3.53;;;21.40;1.00;;;;;;8253144;28;20194;-71
2023/06/16 14:37:16;;;;;;;5.13;4.63;;;21.30;1.00;;;;;;8254863;28;20195;-71
2023/06/16 14:41:17;;;;;;;5.40;4.90;;;21.50;1.00;;;;;;8253417;28;20195;-70
2023/06/16 14:45:18;;;;;;;4.60;4.07;;;21.20;1.00;;;;;;8268007;28;20216;-70
2023/06/16 14:49:23;;;;;;;6.00;3.70;;;21.20;1.00;;;;;;8270122;28;20188;-70
2023/06/16 14:53:25;;;;;;;5.57;3.93;;;21.40;1.00;;;;;;8249777;28;20196;-71
2023/06/16 14:57:26;;;;;;;4.63;4.20;;;21.30;1.00;;;;;;8254729;28;20188;-72
2023/06/16 15:01:27;;;;;;;5.77;4.47;;;21.20;1.00;;;;;;8250966;28;20249;-65
2023/06/16 15:05:28;;;;;;;5.10;4.57;;;20.90;1.00;;;;;;8237911;28;20295;-65
2023/06/16 15:09:29;;;;;;;6.67;4.60;;;20.80;1.00;;;;;;8246258;28;20211;-67
2023/06/16 15:13:30;;;;;;;6.07;4.63;;;20.80;1.00;;;;;;8283950;28;20244;-65
2023/06/16 15:17:31;;;;;;;4.70;4.20;;;21.20;1.00;;;;;;8249925;28;20206;-65
2023/06/16 15:21:32;;;;;;;5.03;4.03;;;21.80;1.00;;;;;;8253097;28;20191;-66
2023/06/16 15:25:33;;;;;;;5.57;3.97;;;22.40;1.00;;;;;;8268996;28;20215;-66
2023/06/16 15:29:34;;;;;;;6.20;4.40;;;22.60;1.00;;;;;;8248255;28;20183;-66
2023/06/16 15:33:35;;;;;;;6.00;3.87;;;22.50;1.00;;;;;;8251187;28;20187;-66
2023/06/16 15:37:36;;;;;;;5.73;4.93;;;22.10;1.00;;;;;;8249678;28;20193;-66
2023/06/16 15:41:37;;;;;;;5.83;4.73;;;21.50;1.00;;;;;;8253087;28;20284;-66
2023/06/16 15:45:38;;;;;;;4.90;4.30;;;21.10;1.00;;;;;;8272010;28;20219;-65
2023/06/16 15:49:41;;;;;;;4.40;4.00;;;20.90;1.00;;;;;;8281117;28;20187;-66
2023/06/16 15:53:42;;;;;;;5.27;4.43;;;20.80;1.00;;;;;;8251232;28;20191;-67
2023/06/16 15:57:43;;;;;;;5.20;4.70;;;20.90;1.00;;;;;;8252078;28;20187;-66
2023/06/16 16:01:44;;;;;;;5.00;4.60;;;20.80;1.00;;;;;;8253932;28;20188;-66
2023/06/16 16:05:45;;;;;;;4.87;4.37;;;20.70;1.00;;;;;;8257803;28;20218;-66
2023/06/16 16:09:46;;;;;;;5.00;4.50;;;20.50;1.00;;;;;;8267615;28;20204;-66
2023/06/16 16:13:47;;;;;;;7.07;4.67;;;20.30;1.00;;;;;;8256363;28;20190;-66
2023/06/16 16:17:48;;;;;;;6.73;4.33;;;20.10;19.90;;;;;;8251746;28;20186;-66
2023/06/16 16:21:50;;;;;;;6.40;5.40;;;19.90;99.60;;;;;;8254801;28;20184;-65
2023/06/16 16:25:51;;;;;;;7.67;5.60;;;19.60;99.90;;;;;;8257282;28;20219;-63
2023/06/16 16:29:52;;;;;;;7.83;5.57;;;19.40;99.90;;;;;;8257114;28;20194;-64
2023/06/16 16:33:53;;;;;;;9.10;5.80;;;19.00;99.90;;;;;;8251330;28;20188;-66
2023/06/16 16:37:54;;;;;;;6.63;6.03;;;18.50;99.90;;;;;;8266489;28;20211;-64
2023/06/16 16:41:56;;;;;;;11.80;5.60;;;18.40;1.00;;;;;;8270275;28;20186;-65
2023/06/16 16:45:57;;;;;;;7.27;6.20;;;18.40;1.00;;;;;;8271307;28;20203;-64
2023/06/16 16:49:58;;;;;;;6.93;5.53;;;18.40;1.00;;;;;;8272379;28;20170;-64
2023/06/16 16:53:59;;;;;;;7.07;5.87;;;18.40;1.00;;;;;;8275491;28;20219;-64
2023/06/16 16:58:00;;;;;;;11.13;6.90;;;18.40;1.00;;;;;;8254867;28;20190;-63
2023/06/16 17:02:05;;;;;;;9.73;6.50;;;18.30;99.90;;;;;;8263134;28;20194;-64
2023/06/16 17:06:06;;;;;;;7.80;6.60;;;18.10;99.90;;;;;;8257197;28;20211;-64
2023/06/16 17:10:08;;;;;;;6.53;5.90;;;18.00;99.90;;;;;;8276231;28;20199;-65
2023/06/16 17:14:08;;;;;;;5.80;5.30;;;18.10;99.90;;;;;;8259620;28;20245;-65
2023/06/16 17:18:10;;;;;;;6.30;5.20;;;18.30;96.50;;;;;;8256848;28;20314;-66
2023/06/16 17:22:11;;;;;;;6.67;5.57;;;18.50;2.70;;;;;;8272491;28;20198;-63
2023/06/16 17:26:14;;;;;;;5.47;4.97;;;18.60;1.00;;;;;;8269319;28;20345;-65
2023/06/16 17:30:15;;;;;;;5.77;4.70;;;18.70;1.00;;;;;;8254608;28;20187;-64
2023/06/16 17:34:17;;;;;;;4.67;4.27;;;18.90;1.00;;;;;;8268154;28;20195;-65
2023/06/16 17:38:18;;;;;;;4.17;3.87;;;19.10;1.00;;;;;;8269336;28;20275;-66
2023/06/16 17:42:19;;;;;;;4.20;3.80;;;19.30;99.90;;;;;;8267916;28;20279;-65
2023/06/16 17:46:20;;;;;;;5.33;4.20;;;19.50;99.90;;;;;;8256833;28;20216;-65
2023/06/16 17:50:30;;;;;;;5.47;3.50;;;19.80;99.90;;;;;;8272427;28;20188;-67
2023/06/16 17:54:31;;;;;;;5.50;4.53;;;20.00;99.90;;;;;;8270502;28;20267;-66
2023/06/16 17:58:33;;;;;;;4.83;4.20;;;20.20;99.90;;;;;;8255777;28;20199;-65
2023/06/16 18:02:34;;;;;;;5.10;4.27;;;20.20;99.90;;;;;;8253970;28;20188;-66
2023/06/16 18:06:35;;;;;;;5.40;4.60;;;19.90;99.90;;;;;;8265584;28;20242;-65
2023/06/16 18:10:36;;;;;;;5.13;4.73;;;19.50;99.90;;;;;;8260482;28;20226;-65
2023/06/16 18:14:37;;;;;;;6.03;5.30;;;19.00;99.90;;;;;;8261564;28;20192;-65
2023/06/16 18:18:38;;;;;;;6.53;4.23;;;18.60;1.00;;;;;;8267583;28;20191;-65
2023/06/16 18:22:39;;;;;;;4.87;4.40;;;18.40;99.90;;;;;;8264676;28;20193;-64
2023/06/16 18:26:41;;;;;;;4.87;4.37;;;18.20;99.90;;;;;;8255113;28;20242;-64
2023/06/16 18:30:42;;;;;;;4.20;3.80;;;18.40;99.90;;;;;;8271796;28;20241;-68
2023/06/16 18:34:43;;;;;;;4.43;3.63;;;19.20;99.90;;;;;;8282004;28;20195;-65
2023/06/16 18:38:46;;;;;;;4.43;3.37;;;19.40;99.90;;;;;;8267768;28;20188;-65
2023/06/16 18:42:47;;;;;;;3.73;3.43;;;19.20;99.90;;;;;;8264586;28;20273;-66
2023/06/16 18:46:51;;;;;;;3.77;3.47;;;18.80;99.90;;;;;;8256854;28;20214;-68
2023/06/16 18:50:52;;;;;;;4.17;3.83;;;18.50;99.90;;;;;;8248143;28;20287;-69
2023/06/16 18:54:54;;;;;;;3.90;3.60;;;18.20;1.00;;;;;;8269518;28;20184;-69
2023/06/16 18:58:56;;;;;;;4.23;3.83;;;17.90;1.00;;;;;;8267647;28;20187;-67
2023/06/16 19:02:57;;;;;;;3.97;3.67;;;17.60;99.90;;;;;;8258735;28;20212;-65
2023/06/16 19:06:58;;;;;;;3.93;3.53;;;17.30;99.90;;;;;;8266093;28;20235;-65
2023/06/16 19:11:00;;;;;;;3.60;3.30;;;17.00;99.90;;;;;;8265058;28;20183;-67
2023/06/16 19:15:01;;;;;;;4.23;3.83;;;16.70;1.00;;;;;;8254836;28;20191;-64
2023/06/16 19:19:02;;;;;;;3.17;2.97;;;16.50;10.30;;;;;;8254150;28;20188;-64
2023/06/16 19:23:03;;;;;;;3.60;3.30;;;16.30;91.30;;;;;;8269446;28;20197;-66
2023/06/16 19:27:04;;;;;;;5.73;3.37;;;16.10;1.00;;;;;;8267359;28;20217;-65
2023/06/16 19:31:06;;;;;;;3.13;2.93;;;15.90;31.10;;;;;;8250337;28;20367;-65
2023/06/16 19:35:08;;;;;;;3.33;3.03;;;15.70;1.00;;;;;;8282122;28;20187;-66
2023/06/16 19:39:09;;;;;;;3.50;3.03;;;15.60;1.00;;;;;;8254645;28;20188;-63
2023/06/16 19:43:13;;;;;;;3.67;3.37;;;15.50;99.90;;;;;;8253388;28;20188;-63
2023/06/16 19:47:15;;;;;;;4.63;3.83;;;15.50;1.00;;;;;;8251642;28;20282;-63
2023/06/16 19:51:16;;;;;;;5.03;3.53;;;15.50;99.90;;;;;;8253345;28;20183;-62
2023/06/16 19:55:18;;;;;;;4.03;3.60;;;15.30;99.90;;;;;;8252891;28;20210;-63
2023/06/16 19:59:19;;;;;;;4.20;3.80;;;15.20;65.90;;;;;;8252131;28;20206;-64
2023/06/16 20:03:21;;;;;;;3.83;3.53;;;15.10;1.00;;;;;;8247389;28;20214;-64
2023/06/16 20:07:22;;;;;;;5.03;4.17;;;15.00;98.30;;;;;;8255662;28;20215;-62
2023/06/16 20:11:23;;;;;;;4.83;4.37;;;14.90;1.00;;;;;;8250177;28;20187;-62
2023/06/16 20:15:25;;;;;;;4.50;4.10;;;14.90;99.90;;;;;;8249140;28;20208;-63
2023/06/16 20:19:28;;;;;;;4.40;4.00;;;14.90;99.90;;;;;;8253306;28;20215;-63
2023/06/16 20:23:34;;;;;;;4.80;4.30;;;14.90;1.00;;;;;;8283795;28;20235;-63
2023/06/16 20:27:36;;;;;;;5.03;4.53;;;14.90;99.90;;;;;;8249922;28;20282;-64
2023/06/16 20:31:37;;;;;;;6.17;4.50;;;14.80;99.90;;;;;;8255545;28;20218;-63
2023/06/16 20:35:38;;;;;;;5.07;4.63;;;14.80;56.00;;;;;;8238311;28;20211;-63
2023/06/16 20:39:39;;;;;;;5.10;4.60;;;14.80;1.00;;;;;;8255310;28;20190;-63
2023/06/16 20:43:40;;;;;;;6.30;4.50;;;14.80;99.90;;;;;;8254662;28;20213;-62
2023/06/16 20:47:48;;;;;;;5.90;5.30;;;14.80;99.90;;;;;;8267457;28;20191;-64
2023/06/16 20:51:53;;;;;;;6.97;5.33;;;14.80;99.90;;;;;;8267371;28;20262;-64
2023/06/16 20:55:54;;;;;;;6.87;5.27;;;14.80;99.90;;;;;;8251397;28;20241;-63
2023/06/16 20:59:56;;;;;;;6.47;5.87;;;14.70;99.90;;;;;;8279553;28;20237;-63
2023/06/16 21:03:57;;;;;;;6.40;5.80;;;14.70;99.90;;;;;;8250489;28;20244;-64
2023/06/16 21:07:58;;;;;;;6.43;5.33;;;14.70;1.00;;;;;;8263425;28;20195;-64